Time;durP1;ratioP1;P1;durP2;ratioP2;P2;SDS_P1;SDS_P2;PMS_P1;PMS_P2;Temp;Humidity;BMP_temperature;BMP_pressure;BME280_temperature;BME280_humidity;BME280_pressure;Samples;Min_cycle;Max_cycle;Signal;HPM_P1;HPM_P2
2022/08/12 00:44:41;;;;;;;4.13;3.50;;;;;;;21.04;85.62;94554.84;5054109;28;20230;-62
2022/08/12 00:47:08;;;;;;;5.47;3.20;;;;;;;20.95;86.58;94537.09;5053531;28;20201;-63
2022/08/12 00:49:35;;;;;;;3.05;2.85;;;;;;;20.97;87.02;94527.34;5053864;28;20217;-60
2022/08/12 00:52:05;;;;;;;2.95;2.75;;;;;;;20.92;87.42;94525.34;5053533;28;20209;-63
2022/08/12 00:54:57;;;;;;;3.67;3.38;;;;;;;20.95;86.71;94537.88;5053798;28;20181;-59
2022/08/12 00:57:35;;;;;;;4.10;3.58;;;;;;;21.06;85.58;94555.44;5053116;28;20232;-60
2022/08/12 01:00:07;;;;;;;3.85;3.13;;;;;;;20.98;86.13;94550.41;5053691;28;20193;-62
2022/08/12 01:02:39;;;;;;;3.70;3.40;;;;;;;20.90;87.07;94535.09;5053332;28;20730;-62
2022/08/12 01:13:27;;;;;;;3.70;3.40;;;;;;;20.93;87.70;94534.69;5053592;28;20192;-65
2022/08/12 01:15:58;;;;;;;3.63;2.90;;;;;;;21.04;87.37;94534.16;5053117;28;20280;-59
2022/08/12 01:18:26;;;;;;;3.60;3.30;;;;;;;21.00;87.02;94548.44;5053122;28;20213;-63
2022/08/12 01:20:52;;;;;;;3.45;3.17;;;;;;;21.14;85.54;94572.53;5052928;28;20241;-63
2022/08/12 01:23:48;;;;;;;3.67;3.15;;;;;;;21.25;83.96;94603.78;5052945;28;20213;-62
2022/08/12 01:26:17;;;;;;;5.35;2.72;;;;;;;21.03;84.54;94581.66;5052930;28;20306;-59
2022/08/12 01:28:45;;;;;;;3.25;3.05;;;;;;;21.03;84.79;94581.66;5053123;28;20328;-60
2022/08/12 01:31:11;;;;;;;3.42;2.97;;;;;;;21.10;84.83;94586.84;5052764;28;20253;-63
2022/08/12 01:33:58;;;;;;;4.90;2.80;;;;;;;21.05;84.85;94582.25;5052836;28;20270;-63
2022/08/12 01:36:29;;;;;;;3.30;3.00;;;;;;;20.90;86.67;94548.00;5052606;28;20267;-63
2022/08/12 01:38:57;;;;;;;6.80;3.33;;;;;;;20.98;86.84;94547.03;5052928;28;20193;-63
2022/08/12 01:41:27;;;;;;;3.20;3.00;;;;;;;21.03;86.74;94539.53;5052695;28;20201;-63
2022/08/12 01:43:53;;;;;;;3.97;3.33;;;;;;;21.10;87.44;94535.16;5052619;28;20196;-63
2022/08/12 01:49:43;;;;;;;3.30;3.00;;;;;;;20.98;89.80;94510.84;5057832;22;20303;-63
2022/08/12 01:52:27;;;;;;;3.22;2.75;;;;;;;21.01;90.09;94498.31;5052562;28;20630;-63
2022/08/12 01:54:52;;;;;;;3.40;3.10;;;;;;;20.98;90.21;94505.66;5052494;28;20205;-61
2022/08/12 01:57:28;;;;;;;3.38;3.08;;;;;;;20.88;89.32;94514.63;5052014;28;20256;-61
2022/08/12 02:00:03;;;;;;;3.40;3.10;;;;;;;20.78;89.94;94511.59;5052404;28;20185;-61
2022/08/12 02:02:29;;;;;;;4.60;3.78;;;;;;;20.69;89.45;94517.13;5052769;28;20213;-60
2022/08/12 02:11:29;;;;;;;9.68;8.25;;;;;;;20.62;90.25;94504.22;5052739;28;20215;-63
2022/08/12 02:14:19;;;;;;;8.43;7.55;;;;;;;20.68;90.34;94506.00;5052273;28;20295;-63
2022/08/12 02:16:57;;;;;;;8.40;6.03;;;;;;;20.55;90.54;94505.16;5034297;28;20225;-63
2022/08/12 02:19:41;;;;;;;7.93;5.57;;;;;;;20.56;91.61;94496.44;5052300;28;20192;-59
2022/08/12 02:22:37;;;;;;;9.45;7.07;;;;;;;20.52;91.11;94506.34;5052497;28;20213;-63
2022/08/12 02:25:08;;;;;;;8.50;4.72;;;;;;;20.50;91.10;94510.13;5052319;28;20185;-63
2022/08/12 02:27:38;;;;;;;8.75;7.85;;;;;;;20.38;91.56;94503.94;5034178;28;20223;-63
2022/08/12 02:30:07;;;;;;;12.82;10.80;;;;;;;20.33;91.77;94495.94;5051989;28;20189;-63
2022/08/12 02:32:37;;;;;;;11.40;7.20;;;;;;;20.34;92.16;94497.56;5052262;28;20634;-62
2022/08/12 02:35:05;;;;;;;5.43;4.28;;;;;;;20.48;91.00;94512.88;5052222;28;20185;-62
2022/08/12 02:37:35;;;;;;;5.38;4.28;;;;;;;20.64;90.85;94516.94;5051864;28;20309;-60
2022/08/12 02:40:02;;;;;;;4.68;4.28;;;;;;;20.84;91.08;94520.34;5051893;28;20190;-62
2022/08/12 02:42:31;;;;;;;6.85;5.88;;;;;;;20.77;90.57;94522.13;5051665;28;20233;-63
2022/08/12 02:45:01;;;;;;;5.32;4.93;;;;;;;20.62;88.27;94557.66;5051633;28;20196;-62
2022/08/12 02:47:32;;;;;;;7.47;5.72;;;;;;;20.56;89.61;94532.59;5051861;28;20632;-62
2022/08/12 02:50:00;;;;;;;4.68;4.30;;;;;;;20.66;89.74;94527.88;5051776;28;20181;-62
2022/08/12 02:52:27;;;;;;;6.35;4.65;;;;;;;20.85;89.52;94538.25;5033722;28;20653;-63
2022/08/12 02:54:59;;;;;;;4.65;4.25;;;;;;;20.99;88.23;94552.00;5051576;28;20655;-64
2022/08/12 02:57:25;;;;;;;4.80;4.35;;;;;;;20.91;88.49;94547.81;5051598;28;20221;-63
2022/08/12 02:59:51;;;;;;;5.05;4.55;;;;;;;20.90;88.64;94545.41;5051074;28;20197;-63
2022/08/12 03:02:21;;;;;;;4.53;4.13;;;;;;;20.88;88.74;94543.03;5051077;28;20213;-61
2022/08/12 03:04:52;;;;;;;6.47;5.40;;;;;;;21.03;87.88;94548.06;5051658;28;20182;-63
2022/08/12 03:07:23;;;;;;;6.82;4.93;;;;;;;21.28;86.25;94579.31;5051674;28;20209;-62
2022/08/12 03:10:13;;;;;;;7.82;5.32;;;;;;;21.30;85.04;94595.44;5033518;28;20225;-63
2022/08/12 03:12:46;;;;;;;5.47;4.97;;;;;;;21.13;86.30;94576.91;5051337;28;20190;-63
2022/08/12 03:15:16;;;;;;;5.60;5.10;;;;;;;21.02;86.32;94577.50;5051337;28;20197;-60
2022/08/12 03:18:17;;;;;;;6.05;5.45;;;;;;;21.01;87.53;94557.75;5051477;28;20928;-61
2022/08/12 03:20:44;;;;;;;7.20;4.75;;;;;;;20.96;87.76;94557.56;5033158;28;20217;-64
2022/08/12 03:23:12;;;;;;;9.98;5.47;;;;;;;20.92;88.00;94553.78;5033210;28;20197;-63
2022/08/12 03:25:40;;;;;;;7.32;5.55;;;;;;;20.97;87.30;94566.91;5051282;28;20209;-62
2022/08/12 03:28:09;;;;;;;7.00;5.35;;;;;;;20.98;86.30;94580.63;5051728;28;20197;-63
2022/08/12 03:30:36;;;;;;;6.85;5.47;;;;;;;21.05;85.50;94595.19;5033074;28;20213;-63
2022/08/12 03:33:04;;;;;;;7.68;4.72;;;;;;;21.08;84.91;94606.94;5033247;28;20574;-62
2022/08/12 03:35:33;;;;;;;7.43;4.45;;;;;;;21.15;83.08;94629.22;5033097;28;20220;-63
2022/08/12 03:38:01;;;;;;;5.53;4.97;;;;;;;21.13;82.88;94635.59;5051033;28;20213;-63
2022/08/12 04:02:43;;;;;;;5.63;4.47;;;;;;;20.95;86.64;94571.47;5051660;28;20284;-63
2022/08/12 04:05:12;;;;;;;6.13;4.55;;;;;;;20.99;87.16;94570.09;5050573;28;20255;-63
2022/08/12 04:07:38;;;;;;;5.22;3.90;;;;;;;21.00;88.62;94550.22;5050637;28;20201;-61
2022/08/12 04:10:05;;;;;;;4.93;4.43;;;;;;;20.83;90.84;94523.91;5050653;28;20201;-60
2022/08/12 04:15:17;;;;;;;6.38;4.97;;;;;;;20.71;97.90;94515.94;5054274;28;20245;-62
2022/08/12 04:17:44;;;;;;;8.10;4.93;;;;;;;20.64;100.00;94524.69;5036328;28;20213;-61
2022/08/12 04:20:12;;;;;;;9.43;5.97;;;;;;;20.69;100.00;94532.63;5054030;28;20185;-62
2022/08/12 04:22:38;;;;;;;6.75;4.82;;;;;;;20.65;100.00;94532.22;5053935;28;20280;-62
2022/08/12 04:25:04;;;;;;;8.10;5.30;;;;;;;20.65;100.00;94539.97;5054095;28;20274;-61
2022/08/12 04:27:30;;;;;;;8.63;5.43;;;;;;;20.53;100.00;94548.47;5053979;28;20308;-63
2022/08/12 04:29:57;;;;;;;6.03;5.10;;;;;;;20.37;100.00;94554.78;5054185;28;20229;-59
2022/08/12 04:32:23;;;;;;;9.07;4.88;;;;;;;20.39;100.00;94562.31;5054031;28;20197;-59
2022/08/12 04:34:50;;;;;;;7.00;5.40;;;;;;;20.41;100.00;94560.34;5053951;28;20193;-62
2022/08/12 04:37:15;;;;;;;5.20;4.70;;;;;;;20.52;100.00;94549.47;5053795;28;20217;-64
2022/08/12 04:39:43;;;;;;;6.78;4.88;;;;;;;20.57;100.00;94553.06;5053914;28;20196;-60
2022/08/12 04:42:08;;;;;;;5.05;4.30;;;;;;;20.66;100.00;94544.16;5053875;28;20579;-62
2022/08/12 04:44:34;;;;;;;6.53;4.75;;;;;;;20.46;100.00;94545.84;5053758;28;20186;-62
2022/08/12 04:47:00;;;;;;;7.15;4.95;;;;;;;20.53;100.00;94545.88;5053647;28;20204;-61
2022/08/12 04:49:26;;;;;;;5.90;5.10;;;;;;;20.51;100.00;94545.28;5053805;28;20204;-59
2022/08/12 04:51:52;;;;;;;5.93;4.65;;;;;;;20.49;100.00;94549.84;5053597;28;20308;-61
2022/08/12 04:54:19;;;;;;;6.15;4.93;;;;;;;20.55;100.00;94549.88;5053382;28;20264;-60
2022/08/12 04:56:45;;;;;;;6.30;4.45;;;;;;;20.47;100.00;94544.88;5053446;28;20205;-60
2022/08/12 04:59:14;;;;;;;5.63;5.03;;;;;;;20.39;100.00;94549.41;5053320;28;20640;-61
2022/08/12 05:01:39;;;;;;;5.90;5.10;;;;;;;20.36;100.00;94557.56;5053227;28;20212;-61
2022/08/12 05:04:08;;;;;;;5.30;4.80;;;;;;;20.45;100.00;94556.38;5053243;28;20354;-61
2022/08/12 05:06:33;;;;;;;4.60;4.20;;;;;;;20.05;100.00;94545.03;5053145;28;20229;-60
2022/08/12 05:08:59;;;;;;;4.35;3.95;;;;;;;20.01;100.00;94548.97;5035255;28;20236;-60
2022/08/12 05:11:25;;;;;;;7.00;4.40;;;;;;;19.95;100.00;94560.06;5053214;28;20637;-58
2022/08/12 05:13:56;;;;;;;6.88;4.47;;;;;;;19.98;100.00;94557.91;5053096;28;20221;-60
2022/08/12 05:16:23;;;;;;;12.50;4.72;;;;;;;19.88;100.00;94560.00;5053070;28;20313;-58
2022/08/12 05:18:48;;;;;;;4.45;4.05;;;;;;;19.82;100.00;94565.13;5053024;28;20654;-59
2022/08/12 05:21:14;;;;;;;7.20;5.43;;;;;;;20.05;100.00;94568.25;5035042;28;20209;-61
2022/08/12 05:23:41;;;;;;;6.25;4.65;;;;;;;20.14;100.00;94567.13;5052533;28;20550;-61
2022/08/12 05:26:06;;;;;;;6.43;4.78;;;;;;;20.24;100.00;94569.41;5051235;28;20709;-61
2022/08/12 05:28:32;;;;;;;6.53;5.22;;;;;;;20.29;100.00;94577.34;5052040;28;20202;-63
2022/08/12 05:31:00;;;;;;;5.72;4.72;;;;;;;20.30;100.00;94578.97;5035020;28;20384;-62
2022/08/12 05:33:38;;;;;;;5.00;4.50;;;;;;;20.31;100.00;94578.78;5053135;28;20208;-61
2022/08/12 05:36:12;;;;;;;7.43;4.93;;;;;;;20.10;100.00;94577.03;5053069;28;20208;-59
2022/08/12 05:38:56;;;;;;;6.38;5.00;;;;;;;20.09;100.00;94577.22;5052700;28;20643;-60
2022/08/12 05:41:30;;;;;;;6.75;5.03;;;;;;;20.08;100.00;94576.41;5052842;28;20213;-61
2022/08/12 05:43:59;;;;;;;10.55;5.40;;;;;;;20.12;100.00;94582.00;5052903;28;20220;-60
2022/08/12 05:46:27;;;;;;;4.85;4.35;;;;;;;20.16;100.00;94572.09;5034723;28;20206;-60
2022/08/12 05:48:53;;;;;;;5.93;5.32;;;;;;;20.24;100.00;94587.47;5035005;28;20186;-59
2022/08/12 05:51:22;;;;;;;6.22;5.47;;;;;;;20.07;100.00;94582.59;5052742;28;20201;-59
2022/08/12 05:53:48;;;;;;;6.90;6.10;;;;;;;20.16;100.00;94582.44;5052827;28;20684;-60
2022/08/12 05:56:32;;;;;;;10.43;7.00;;;;;;;20.34;100.00;94580.19;5052859;28;20268;-61
2022/08/12 05:59:00;;;;;;;9.32;8.32;;;;;;;20.41;100.00;94588.75;5034782;28;20585;-61
2022/08/12 06:01:27;;;;;;;9.50;8.15;;;;;;;20.58;100.00;94584.88;5052552;28;20210;-61
2022/08/12 06:03:54;;;;;;;10.93;8.70;;;;;;;20.68;100.00;94578.34;5052614;28;20193;-59
2022/08/12 06:06:20;;;;;;;7.00;5.50;;;;;;;20.67;100.00;94574.16;5052542;28;20213;-61
2022/08/12 06:08:52;;;;;;;9.02;6.88;;;;;;;20.81;100.00;94578.41;5052516;28;20573;-61
2022/08/12 06:11:18;;;;;;;6.28;5.68;;;;;;;20.96;100.00;94582.59;5052296;28;20237;-61
2022/08/12 06:13:44;;;;;;;8.32;6.32;;;;;;;20.90;100.00;94589.38;5052433;28;20186;-59
2022/08/12 06:16:20;;;;;;;7.18;6.25;;;;;;;20.76;100.00;94585.94;5052477;28;20204;-61
2022/08/12 06:18:46;;;;;;;9.38;6.57;;;;;;;20.90;100.00;94591.94;5052339;28;20224;-60
2022/08/12 06:21:14;;;;;;;6.70;4.97;;;;;;;21.22;100.00;94588.69;5052122;28;20213;-63
2022/08/12 06:23:41;;;;;;;10.40;8.27;;;;;;;21.37;100.00;94617.75;5052043;28;20224;-62
2022/08/12 06:26:10;;;;;;;10.30;8.38;;;;;;;21.40;100.00;94604.44;5052185;28;20205;-63
2022/08/12 06:28:50;;;;;;;7.10;6.20;;;;;;;21.42;100.00;94643.03;5034108;28;20200;-63
2022/08/12 06:31:18;;;;;;;6.78;5.65;;;;;;;21.28;100.00;94646.56;5051882;28;20209;-63
2022/08/12 06:33:45;;;;;;;8.20;6.35;;;;;;;21.07;100.00;94634.56;5051993;28;20758;-63
2022/08/12 06:36:12;;;;;;;7.43;5.75;;;;;;;21.05;100.00;94604.75;5051758;28;20241;-61
2022/08/12 06:38:40;;;;;;;7.75;5.88;;;;;;;21.17;100.00;94609.13;5051927;28;20217;-61
2022/08/12 06:43:52;;;;;;;10.07;5.95;;;;;;;21.20;100.00;94608.75;5052204;28;20204;-61
2022/08/12 06:46:21;;;;;;;6.90;6.13;;;;;;;21.25;100.00;94596.03;5052158;28;20206;-59
2022/08/12 06:48:48;;;;;;;6.65;6.00;;;;;;;21.36;100.00;94602.41;5034343;28;20193;-60
2022/08/12 06:51:14;;;;;;;7.15;5.68;;;;;;;21.37;100.00;94571.19;5051753;28;20212;-61
2022/08/12 06:53:43;;;;;;;12.80;7.07;;;;;;;21.45;100.00;94599.44;5051998;28;20182;-62
2022/08/12 06:56:08;;;;;;;7.63;5.07;;;;;;;21.61;100.00;94588.72;5051493;28;20650;-60
2022/08/12 06:58:36;;;;;;;10.02;6.75;;;;;;;21.93;100.00;94645.91;5051787;28;20209;-63
2022/08/12 07:01:01;;;;;;;7.95;7.15;;;;;;;22.02;100.00;94613.66;5033697;28;20214;-64
2022/08/12 07:03:27;;;;;;;12.38;8.82;;;;;;;22.17;99.31;94653.06;5033705;28;20200;-61
2022/08/12 07:06:02;;;;;;;12.32;7.20;;;;;;;22.35;96.26;94686.94;5051315;28;20216;-59
2022/08/12 07:08:32;;;;;;;10.77;6.75;;;;;;;22.44;97.28;94662.41;5051430;28;20265;-60
2022/08/12 07:11:01;;;;;;;7.45;6.22;;;;;;;22.48;95.86;94666.97;5051312;28;20201;-60
2022/08/12 07:13:33;;;;;;;6.25;5.63;;;;;;;22.68;94.90;94674.75;5033358;28;20197;-60
2022/08/12 07:16:00;;;;;;;10.70;5.50;;;;;;;22.82;94.44;94678.09;5051266;28;20205;-60
2022/08/12 07:18:34;;;;;;;9.25;6.38;;;;;;;22.84;93.94;94670.91;5051480;28;20217;-60
2022/08/12 07:21:02;;;;;;;6.22;5.05;;;;;;;23.04;93.83;94669.84;5051274;28;20204;-61
2022/08/12 07:23:29;;;;;;;8.98;7.32;;;;;;;23.41;92.89;94688.28;5051267;28;20248;-60
2022/08/12 07:25:56;;;;;;;11.23;6.85;;;;;;;23.43;93.61;94661.13;5051088;28;20197;-63
2022/08/12 07:28:24;;;;;;;10.15;6.57;;;;;;;23.52;92.23;94680.63;5051034;28;20233;-64
2022/08/12 07:30:51;;;;;;;8.05;6.47;;;;;;;23.51;89.92;94709.41;5051094;28;20209;-64
2022/08/12 07:33:21;;;;;;;9.88;7.70;;;;;;;23.32;92.26;94670.34;5051451;28;20186;-62
2022/08/12 07:35:48;;;;;;;6.65;5.60;;;;;;;23.30;90.21;94707.84;5033319;28;20217;-63
2022/08/12 07:38:23;;;;;;;9.70;6.05;;;;;;;23.15;89.11;94708.09;5033226;28;20244;-63
2022/08/12 07:40:58;;;;;;;7.32;5.75;;;;;;;23.23;91.25;94663.78;5050674;28;20197;-63
2022/08/12 07:43:25;;;;;;;10.80;5.57;;;;;;;23.32;89.43;94696.31;5051276;28;20227;-63
2022/08/12 07:45:53;;;;;;;30.10;23.73;;;;;;;23.35;88.90;94685.50;5050696;28;20205;-62
2022/08/12 07:48:19;;;;;;;7.07;6.25;;;;;;;23.35;90.18;94659.56;5032479;28;20641;-62
2022/08/12 07:50:45;;;;;;;7.72;6.35;;;;;;;23.49;88.17;94695.84;5032895;28;20301;-63
2022/08/12 07:53:10;;;;;;;8.05;5.65;;;;;;;23.57;88.06;94696.38;5050732;28;20272;-63
2022/08/12 07:55:36;;;;;;;6.65;5.55;;;;;;;23.67;86.79;94708.91;5050837;28;20255;-63
2022/08/12 07:58:01;;;;;;;6.63;5.75;;;;;;;23.74;87.17;94687.09;5033003;28;20239;-62
2022/08/12 08:00:30;;;;;;;5.93;5.13;;;;;;;23.97;85.79;94717.72;5050568;28;20787;-61
2022/08/12 08:02:57;;;;;;;8.98;5.72;;;;;;;24.33;84.08;94736.06;5050814;28;20193;-62
2022/08/12 08:05:25;;;;;;;6.65;4.97;;;;;;;24.62;80.80;94773.63;5050745;28;20188;-60
2022/08/12 08:07:54;;;;;;;4.82;4.40;;;;;;;24.93;78.80;94799.59;5050826;28;20728;-61
2022/08/12 08:10:20;;;;;;;6.57;4.30;;;;;;;25.20;75.71;94826.16;5050566;28;20297;-61
2022/08/12 08:13:03;;;;;;;6.10;4.38;;;;;;;25.33;75.06;94820.84;5050600;28;20663;-59
2022/08/12 08:15:33;;;;;;;5.38;3.80;;;;;;;25.71;74.26;94817.00;5032794;28;20209;-63
2022/08/12 08:18:03;;;;;;;6.38;3.63;;;;;;;25.91;70.96;94879.31;5050980;28;20296;-63
2022/08/12 08:20:32;;;;;;;4.30;3.90;;;;;;;26.15;70.83;94857.59;5050454;28;20628;-62
2022/08/12 08:23:04;;;;;;;4.57;4.15;;;;;;;26.17;69.36;94865.19;5050243;28;20204;-63
2022/08/12 08:25:30;;;;;;;6.07;3.85;;;;;;;25.83;70.40;94821.50;5032476;28;20251;-62
2022/08/12 08:27:58;;;;;;;4.82;4.32;;;;;;;25.79;70.44;94813.34;5050522;28;20186;-62
2022/08/12 08:30:23;;;;;;;4.13;3.58;;;;;;;25.91;71.47;94782.91;5050426;28;20201;-63
2022/08/12 08:32:49;;;;;;;4.35;3.65;;;;;;;26.10;68.70;94841.81;5032592;28;20177;-61
2022/08/12 08:35:14;;;;;;;4.72;4.32;;;;;;;26.28;68.30;94841.00;5050365;28;20177;-62
2022/08/12 08:37:43;;;;;;;4.03;3.70;;;;;;;26.29;67.99;94827.72;5050148;28;20220;-61
2022/08/12 08:42:53;;;;;;;4.20;3.83;;;;;;;26.33;66.27;94841.91;5050737;28;20283;-61
2022/08/12 08:45:19;;;;;;;4.80;3.50;;;;;;;25.92;67.66;94787.09;5050290;28;20215;-62
2022/08/12 08:50:31;;;;;;;4.38;3.70;;;;;;;25.84;66.37;94808.25;5050530;28;20247;-61
2022/08/12 08:52:58;;;;;;;3.80;3.17;;;;;;;25.59;65.29;94818.75;5032243;28;20284;-63
2022/08/12 08:55:24;;;;;;;5.22;3.47;;;;;;;25.72;66.46;94781.34;5050083;28;20181;-62
2022/08/12 08:57:52;;;;;;;4.10;3.33;;;;;;;25.74;66.14;94787.94;5050008;28;20224;-61
2022/08/12 09:00:19;;;;;;;5.97;3.55;;;;;;;25.69;62.54;94868.53;5035148;28;20262;-61
2022/08/12 09:02:47;;;;;;;3.35;3.13;;;;;;;25.56;62.66;94858.28;5053785;28;20276;-63
2022/08/12 09:05:12;;;;;;;3.58;3.08;;;;;;;25.36;62.50;94862.84;5053225;28;20193;-62
2022/08/12 09:07:45;;;;;;;3.45;3.10;;;;;;;25.21;62.88;94835.59;5053659;28;20189;-65
2022/08/12 09:10:12;;;;;;;6.32;3.22;;;;;;;25.24;65.87;94772.66;5053132;28;20190;-64
2022/08/12 09:15:24;;;;;;;4.65;2.83;;;;;;;25.40;61.63;94858.00;5053440;28;20205;-59
2022/08/12 09:17:59;;;;;;;4.70;2.47;;;;;;;25.37;59.45;94911.28;5053177;28;20216;-62
2022/08/12 09:20:28;;;;;;;3.45;2.50;;;;;;;25.61;56.45;94967.00;5053232;28;20193;-59
2022/08/12 09:22:57;;;;;;;2.60;2.40;;;;;;;25.90;56.84;94927.22;5053046;28;20189;-61
2022/08/12 09:25:26;;;;;;;3.00;2.67;;;;;;;26.36;55.41;94966.63;5053028;28;20284;-62
2022/08/12 09:27:55;;;;;;;2.70;2.47;;;;;;;26.58;57.03;94920.78;5053562;28;20572;-63
2022/08/12 09:30:21;;;;;;;2.83;2.50;;;;;;;26.37;57.38;94910.88;5035368;28;20196;-62
2022/08/12 09:32:49;;;;;;;5.18;2.70;;;;;;;26.55;57.54;94900.38;5053170;28;20197;-62
2022/08/12 09:35:32;;;;;;;2.67;2.42;;;;;;;26.51;56.50;94920.09;5052965;28;20276;-63
2022/08/12 09:38:00;;;;;;;3.47;2.83;;;;;;;26.40;58.11;94876.50;5053090;28;20209;-62
2022/08/12 09:40:25;;;;;;;3.10;2.80;;;;;;;26.77;57.48;94885.03;5052582;28;20185;-61
2022/08/12 09:45:35;;;;;;;3.58;2.88;;;;;;;26.66;58.01;94869.34;5052922;28;20274;-62
2022/08/12 09:48:05;;;;;;;7.80;2.83;;;;;;;26.78;53.75;94985.00;5053063;28;20190;-60
2022/08/12 09:50:31;;;;;;;2.88;2.65;;;;;;;26.54;53.36;94968.44;5052454;28;20213;-62
2022/08/12 09:53:14;;;;;;;3.55;2.92;;;;;;;26.29;56.32;94879.06;5034922;28;20197;-62
2022/08/12 09:55:50;;;;;;;3.75;2.67;;;;;;;26.30;56.79;94870.25;5036017;28;20237;-62
2022/08/12 09:58:15;;;;;;;3.35;3.00;;;;;;;26.31;59.01;94804.03;5034553;28;20302;-60
2022/08/12 10:00:42;;;;;;;5.40;2.95;;;;;;;26.47;57.78;94839.91;5052562;28;20217;-60
2022/08/12 10:03:10;;;;;;;4.00;2.67;;;;;;;26.68;57.41;94843.81;5052568;28;20224;-62
2022/08/12 10:05:44;;;;;;;3.80;3.00;;;;;;;26.99;54.20;94934.91;5052372;28;20212;-61
2022/08/12 10:08:16;;;;;;;2.95;2.75;;;;;;;27.20;53.17;94945.63;5052452;28;20590;-60
2022/08/12 10:13:40;;;;;;;3.10;2.78;;;;;;;27.17;52.33;94946.06;5052931;28;20193;-60
2022/08/12 10:16:11;;;;;;;3.08;2.83;;;;;;;27.18;51.02;94975.59;5052219;28;20205;-61
2022/08/12 10:18:43;;;;;;;9.55;2.33;;;;;;;27.25;51.01;94963.25;5052332;28;20225;-61
2022/08/12 10:21:14;;;;;;;4.30;2.88;;;;;;;27.38;51.59;94945.56;5052027;28;20703;-60
2022/08/12 10:23:41;;;;;;;2.70;2.50;;;;;;;27.43;50.84;94955.34;5052130;28;20193;-62
2022/08/12 10:31:37;;;;;;;3.17;2.88;;;;;;;27.12;51.35;94937.31;5058529;22;20255;-62
2022/08/12 10:34:04;;;;;;;3.40;3.10;;;;;;;27.72;52.24;94896.13;5051881;28;20577;-62
2022/08/12 10:36:33;;;;;;;3.85;2.50;;;;;;;27.64;48.94;94993.16;5052352;28;20275;-62
2022/08/12 10:38:59;;;;;;;2.95;2.35;;;;;;;27.84;48.00;95015.34;5052000;28;20209;-61
2022/08/12 10:44:11;;;;;;;2.90;2.60;;;;;;;27.94;48.11;94996.47;5052191;28;20189;-62
2022/08/12 10:46:37;;;;;;;3.40;2.60;;;;;;;27.49;49.53;94944.00;5051881;28;20228;-62
2022/08/12 10:49:03;;;;;;;3.03;2.50;;;;;;;27.19;49.04;94945.88;5051787;28;20221;-63
2022/08/12 10:51:29;;;;;;;4.75;2.97;;;;;;;26.96;49.31;94936.16;5051773;28;20252;-63
2022/08/12 10:53:55;;;;;;;4.00;2.42;;;;;;;26.81;50.31;94899.22;5051665;28;20189;-62
2022/08/12 10:56:21;;;;;;;2.92;2.63;;;;;;;26.72;51.67;94863.25;5051572;28;20213;-62
2022/08/12 10:58:47;;;;;;;3.13;2.60;;;;;;;26.55;50.96;94876.91;5051408;28;20259;-62
2022/08/12 11:01:14;;;;;;;5.03;3.20;;;;;;;26.56;50.48;94882.94;5051789;28;20284;-62
2022/08/12 11:03:40;;;;;;;3.00;2.70;;;;;;;26.43;50.63;94878.69;5051698;28;20586;-62
2022/08/12 11:06:08;;;;;;;5.25;2.88;;;;;;;26.38;51.15;94862.13;5051624;28;20209;-62
2022/08/12 11:08:36;;;;;;;3.13;2.90;;;;;;;26.31;51.42;94845.75;5051351;28;20299;-61
2022/08/12 11:11:07;;;;;;;3.25;2.95;;;;;;;26.21;54.06;94773.31;5051523;28;20217;-64
2022/08/12 11:13:33;;;;;;;3.53;3.08;;;;;;;26.03;53.56;94790.78;5051504;28;20189;-63
2022/08/12 11:16:00;;;;;;;6.38;3.50;;;;;;;26.01;53.78;94783.19;5051430;28;20213;-61
2022/08/12 11:18:26;;;;;;;3.42;3.13;;;;;;;25.66;53.77;94780.41;5033427;28;20212;-60
2022/08/12 11:20:53;;;;;;;5.00;3.00;;;;;;;25.65;54.89;94759.81;5051144;28;20205;-60
2022/08/12 11:23:20;;;;;;;3.78;3.10;;;;;;;25.53;54.62;94759.72;5050691;28;20277;-61
2022/08/12 11:25:47;;;;;;;11.00;3.47;;;;;;;25.46;55.29;94738.19;5051507;28;20224;-63
2022/08/12 11:28:14;;;;;;;12.95;3.20;;;;;;;25.50;57.36;94687.28;5051398;28;20620;-62
2022/08/12 11:30:39;;;;;;;3.60;3.00;;;;;;;25.55;57.00;94699.63;5051431;28;20266;-63
2022/08/12 11:33:06;;;;;;;4.95;3.15;;;;;;;25.44;56.24;94713.38;5049834;28;20193;-59
2022/08/12 11:35:31;;;;;;;3.13;2.70;;;;;;;25.66;58.33;94671.03;5051023;28;20218;-60
2022/08/12 11:38:04;;;;;;;3.42;3.13;;;;;;;25.63;55.09;94754.03;5050886;28;20686;-60
2022/08/12 11:40:30;;;;;;;4.75;3.10;;;;;;;25.39;55.54;94731.44;5051000;28;20209;-60
2022/08/12 11:42:59;;;;;;;3.90;3.40;;;;;;;25.26;55.73;94726.38;5050913;28;20285;-61
2022/08/12 11:45:29;;;;;;;3.60;2.92;;;;;;;25.07;56.72;94702.16;5033261;28;20193;-61
2022/08/12 11:47:55;;;;;;;4.60;3.15;;;;;;;25.15;56.48;94703.72;5050913;28;20231;-60
2022/08/12 11:50:22;;;;;;;3.20;2.90;;;;;;;25.14;57.03;94697.69;5033142;28;20190;-61
2022/08/12 11:52:48;;;;;;;3.63;2.80;;;;;;;25.15;57.41;94675.84;5050935;28;20252;-63
2022/08/12 11:55:14;;;;;;;5.03;4.00;;;;;;;25.33;58.57;94655.00;5050922;28;20208;-62
2022/08/12 11:57:55;;;;;;;4.40;4.00;;;;;;;25.30;61.26;94590.38;5050711;28;20209;-62
2022/08/12 12:00:21;;;;;;;3.38;2.72;;;;;;;25.13;63.34;94547.75;5050724;28;20189;-62
2022/08/12 12:02:47;;;;;;;2.75;2.55;;;;;;;24.60;65.96;94498.25;5050807;28;20330;-63
2022/08/12 12:05:14;;;;;;;5.13;3.13;;;;;;;24.40;67.56;94463.88;5050731;28;20272;-63
2022/08/12 12:07:43;;;;;;;3.75;3.45;;;;;;;24.48;69.43;94450.59;5049300;28;20272;-63
2022/08/12 12:10:14;;;;;;;3.47;3.17;;;;;;;24.52;69.62;94454.34;5050774;28;20196;-62
2022/08/12 12:12:41;;;;;;;4.80;3.55;;;;;;;24.61;67.74;94505.00;5050617;28;20593;-62
2022/08/12 12:15:07;;;;;;;8.18;3.00;;;;;;;24.66;66.76;94522.56;5050665;28;20193;-63
2022/08/12 12:17:41;;;;;;;5.40;4.90;;;;;;;24.69;65.41;94548.13;5050300;28;20216;-62
2022/08/12 12:20:09;;;;;;;7.22;3.33;;;;;;;24.56;65.58;94549.09;5050742;28;20645;-64
2022/08/12 12:22:40;;;;;;;7.65;4.32;;;;;;;24.59;65.37;94551.25;5050261;28;20687;-62
2022/08/12 12:25:07;;;;;;;5.03;4.22;;;;;;;25.01;65.15;94561.78;5032374;28;20288;-62
2022/08/12 12:27:51;;;;;;;4.60;3.63;;;;;;;25.42;61.33;94647.72;5032450;28;20200;-62
2022/08/12 12:30:16;;;;;;;3.95;3.30;;;;;;;25.63;66.07;94525.59;5050463;28;20196;-63
2022/08/12 12:32:43;;;;;;;6.05;3.92;;;;;;;25.67;67.28;94512.94;5033171;28;20185;-64
2022/08/12 12:35:08;;;;;;;14.18;3.67;;;;;;;26.90;64.65;94583.94;5053714;28;20189;-62
2022/08/12 12:37:48;;;;;;;5.45;3.90;;;;;;;26.97;62.95;94608.88;5053523;28;20220;-60
2022/08/12 12:40:13;;;;;;;6.18;4.25;;;;;;;26.41;62.47;94622.56;5053735;28;20670;-60
2022/08/12 12:42:39;;;;;;;3.97;3.10;;;;;;;26.27;60.11;94662.91;5035752;28;20193;-60
2022/08/12 12:45:04;;;;;;;7.60;3.53;;;;;;;26.47;63.08;94584.31;5053497;28;20204;-60
2022/08/12 12:47:30;;;;;;;4.60;3.53;;;;;;;26.59;61.75;94619.81;5019119;28;20256;-61
2022/08/12 12:49:55;;;;;;;3.67;3.38;;;;;;;26.78;60.26;94659.63;5053605;28;20611;-60
2022/08/12 12:52:21;;;;;;;4.22;3.33;;;;;;;26.98;58.27;94690.56;5053392;28;20209;-60
2022/08/12 12:54:51;;;;;;;3.58;3.28;;;;;;;27.50;57.62;94710.44;5053623;28;20552;-61
2022/08/12 12:57:17;;;;;;;4.05;3.10;;;;;;;27.92;54.01;94798.00;5053392;28;20217;-61
2022/08/12 13:00:13;;;;;;;5.57;3.60;;;;;;;28.38;55.00;94763.06;5053392;28;20331;-60
2022/08/12 13:02:27;;;;;;;4.55;3.22;;;;;;;29.07;55.37;94753.13;5053141;28;20217;-61
2022/08/12 13:04:53;;;;;;;3.35;3.05;;;;;;;28.91;50.93;94865.50;5053335;28;20562;-62
2022/08/12 13:07:20;;;;;;;4.90;3.50;;;;;;;28.86;51.14;94875.91;5035585;28;20206;-61
2022/08/12 13:09:46;;;;;;;3.53;3.20;;;;;;;29.13;51.49;94846.47;5035175;28;20204;-63
2022/08/12 13:12:13;;;;;;;5.50;3.67;;;;;;;29.56;49.82;94875.41;5035257;28;20202;-63
2022/08/12 13:14:38;;;;;;;3.30;3.08;;;;;;;29.76;51.25;94821.44;5053348;28;20189;-63
2022/08/12 13:17:04;;;;;;;4.10;3.28;;;;;;;30.15;50.77;94842.31;5034998;28;20241;-63
2022/08/12 13:19:30;;;;;;;3.78;3.47;;;;;;;29.81;46.93;94949.19;5053119;28;20185;-62
2022/08/12 13:24:40;;;;;;;4.18;3.85;;;;;;;30.22;47.96;94904.06;5053276;28;20232;-60
2022/08/12 13:27:05;;;;;;;3.70;3.40;;;;;;;30.24;48.52;94875.75;5035200;28;20288;-61
2022/08/12 13:29:32;;;;;;;7.38;4.97;;;;;;;30.00;46.37;94936.59;5052974;28;20652;-62
2022/08/12 13:32:01;;;;;;;3.97;3.58;;;;;;;29.68;47.82;94882.13;5034903;28;20292;-60
2022/08/12 13:34:27;;;;;;;4.00;3.38;;;;;;;29.56;49.08;94857.84;5053013;28;20201;-61